createdAt,value
2022-09-01T00:01:48.601Z,15.90
2022-09-01T00:04:20.474Z,15.80
2022-09-01T00:06:47.851Z,15.90
2022-09-01T00:09:17.391Z,15.90
2022-09-01T00:11:50.619Z,15.90
2022-09-01T00:14:30.322Z,15.70
2022-09-01T00:16:59.712Z,15.70
2022-09-01T00:19:27.153Z,15.70
2022-09-01T00:21:53.951Z,15.80
2022-09-01T00:24:20.661Z,15.90
2022-09-01T00:26:47.657Z,15.80
2022-09-01T00:29:15.286Z,15.80
2022-09-01T00:31:42.321Z,15.70
2022-09-01T00:34:09.047Z,15.70
2022-09-01T00:36:35.726Z,15.70
2022-09-01T00:39:02.903Z,15.60
2022-09-01T00:41:31.953Z,15.70
2022-09-01T00:44:01.866Z,15.60
2022-09-01T00:46:36.969Z,15.50
2022-09-01T00:49:35.089Z,15.50
2022-09-01T00:52:32.034Z,15.60
2022-09-01T00:55:02.821Z,15.70
2022-09-01T00:57:29.625Z,15.70
2022-09-01T01:00:13.399Z,15.90
2022-09-01T01:02:42.272Z,15.90
2022-09-01T01:05:10.599Z,16.00
2022-09-01T01:07:47.564Z,15.90
2022-09-01T01:10:17.638Z,15.90
2022-09-01T01:12:44.827Z,15.90
2022-09-01T01:15:12.750Z,15.90
2022-09-01T01:17:39.703Z,15.90
2022-09-01T01:20:26.939Z,15.80
2022-09-01T01:23:20.914Z,15.90
2022-09-01T01:26:13.717Z,15.90
2022-09-01T01:28:41.917Z,15.90
2022-09-01T01:31:20.357Z,15.80
2022-09-01T01:33:50.065Z,15.80
2022-09-01T01:36:31.089Z,15.60
2022-09-01T01:39:01.851Z,15.50
2022-09-01T01:41:30.370Z,15.20
2022-09-01T01:43:58.594Z,15.20
2022-09-01T01:46:26.408Z,15.00
2022-09-01T01:48:53.665Z,15.00
2022-09-01T01:51:24.906Z,15.00
2022-09-01T01:53:52.586Z,14.90
2022-09-01T01:56:20.581Z,14.90
2022-09-01T01:58:47.222Z,15.00
2022-09-01T02:01:13.879Z,15.00
2022-09-01T02:03:40.902Z,15.20
2022-09-01T02:06:09.820Z,15.30
2022-09-01T02:08:38.180Z,15.40
2022-09-01T02:11:06.214Z,15.50
2022-09-01T02:13:34.033Z,15.40
2022-09-01T02:16:07.624Z,15.30
2022-09-01T02:18:37.917Z,15.30
2022-09-01T02:21:15.177Z,15.20
2022-09-01T02:23:44.667Z,15.20
2022-09-01T02:26:16.681Z,15.00
2022-09-01T02:28:46.876Z,14.90
2022-09-01T02:31:15.580Z,14.80
2022-09-01T02:33:47.027Z,14.70
2022-09-01T02:36:17.234Z,14.50
2022-09-01T02:38:46.731Z,14.40
2022-09-01T02:41:23.007Z,14.30
2022-09-01T02:43:50.654Z,14.20
2022-09-01T02:46:18.832Z,14.10
2022-09-01T02:48:46.019Z,14.10
2022-09-01T02:51:17.076Z,13.90
2022-09-01T02:53:44.759Z,13.80
2022-09-01T02:56:14.487Z,13.70
2022-09-01T02:58:46.888Z,13.60
2022-09-01T03:01:22.584Z,13.50
2022-09-01T03:03:50.294Z,13.40
2022-09-01T03:06:20.949Z,13.30
2022-09-01T03:08:48.397Z,13.30
2022-09-01T03:11:15.556Z,13.20
2022-09-01T03:13:43.021Z,13.20
2022-09-01T03:16:10.638Z,13.20
2022-09-01T03:18:38.073Z,13.20
2022-09-01T03:21:08.280Z,13.30
2022-09-01T03:23:35.386Z,13.30
2022-09-01T03:26:02.041Z,13.20
2022-09-01T03:28:28.939Z,13.10
2022-09-01T03:30:57.435Z,13.20
2022-09-01T03:33:25.926Z,13.20
2022-09-01T03:35:53.402Z,13.20
2022-09-01T03:38:24.389Z,13.20
2022-09-01T03:41:03.003Z,13.30
2022-09-01T03:43:35.629Z,13.20
2022-09-01T03:46:03.225Z,13.20
2022-09-01T03:48:32.006Z,13.20
2022-09-01T03:51:03.177Z,13.20
2022-09-01T03:53:34.121Z,13.40
2022-09-01T03:56:04.057Z,13.40
2022-09-01T03:58:30.970Z,13.30
2022-09-01T04:01:00.546Z,13.40
2022-09-01T04:03:31.251Z,13.50
2022-09-01T04:06:00.069Z,13.60
2022-09-01T04:08:32.668Z,13.60
2022-09-01T04:11:10.504Z,13.60
2022-09-01T04:13:39.766Z,13.60
2022-09-01T04:16:30.323Z,13.50
2022-09-01T04:18:57.079Z,13.40
2022-09-01T04:21:23.678Z,13.30
2022-09-01T04:23:50.286Z,13.40
2022-09-01T04:26:20.375Z,13.40
2022-09-01T04:28:49.409Z,13.40
2022-09-01T04:31:19.417Z,13.40
2022-09-01T04:33:49.626Z,13.50
2022-09-01T04:36:19.543Z,13.50
2022-09-01T04:38:47.079Z,13.60
2022-09-01T04:41:17.674Z,13.50
2022-09-01T04:43:47.327Z,13.60
2022-09-01T04:46:18.157Z,13.80
2022-09-01T04:48:48.182Z,14.00
2022-09-01T04:51:16.063Z,14.10
2022-09-01T04:53:48.583Z,14.10
2022-09-01T04:56:20.652Z,14.20
2022-09-01T04:58:47.835Z,14.10
2022-09-01T05:01:17.439Z,14.10
2022-09-01T05:03:45.287Z,14.00
2022-09-01T05:06:20.338Z,14.00
2022-09-01T05:08:46.990Z,14.00
2022-09-01T05:11:17.934Z,13.90
2022-09-01T05:13:46.495Z,14.00
2022-09-01T05:16:16.366Z,13.90
2022-09-01T05:18:48.817Z,13.90
2022-09-01T05:21:22.132Z,14.00
2022-09-01T05:23:51.554Z,14.10
2022-09-01T05:26:23.723Z,14.30
2022-09-01T05:28:54.651Z,14.40
2022-09-01T05:31:22.618Z,14.50
2022-09-01T05:33:50.754Z,14.60
2022-09-01T05:36:20.221Z,14.70
2022-09-01T05:38:48.374Z,14.80
2022-09-01T05:41:16.839Z,14.90
2022-09-01T05:43:46.231Z,15.00
2022-09-01T05:46:18.537Z,15.00
2022-09-01T05:48:46.579Z,15.10
2022-09-01T05:51:42.748Z,15.10
2022-09-01T05:54:08.001Z,15.20
2022-09-01T05:56:44.024Z,15.20
2022-09-01T05:59:28.475Z,15.10
2022-09-01T06:01:56.342Z,15.30
2022-09-01T06:04:25.511Z,15.30
2022-09-01T06:07:10.250Z,15.40
2022-09-01T06:09:41.643Z,15.40
2022-09-01T06:12:17.110Z,15.50
2022-09-01T06:14:44.761Z,15.50
2022-09-01T06:17:11.681Z,15.60
2022-09-01T06:19:39.964Z,15.60
2022-09-01T06:22:07.210Z,15.70
2022-09-01T06:24:33.874Z,15.80
2022-09-01T06:27:01.063Z,15.80
2022-09-01T06:29:28.440Z,15.90
2022-09-01T06:31:55.031Z,15.90
2022-09-01T06:34:22.258Z,15.90
2022-09-01T06:36:51.558Z,15.90
2022-09-01T06:39:20.896Z,16.10
2022-09-01T06:41:50.690Z,16.20
2022-09-01T06:44:23.003Z,16.40
2022-09-01T06:46:53.486Z,16.40
2022-09-01T06:49:21.569Z,16.60
2022-09-01T06:51:49.585Z,16.80
2022-09-01T06:54:20.737Z,16.80
2022-09-01T06:56:51.399Z,17.00
2022-09-01T06:59:20.498Z,17.20
2022-09-01T07:01:49.011Z,17.50
2022-09-01T07:04:21.607Z,17.50
2022-09-01T07:07:00.091Z,17.70
2022-09-01T07:12:27.855Z,18.00
2022-09-01T07:17:54.210Z,19.10
2022-09-01T07:20:23.965Z,19.60
2022-09-01T07:23:10.693Z,19.80
2022-09-01T07:26:02.306Z,20.70
2022-09-01T07:28:37.650Z,21.00
2022-09-01T07:33:55.626Z,20.90
2022-09-01T07:42:56.125Z,17.80
2022-09-01T07:45:26.600Z,21.90
2022-09-01T07:47:54.632Z,22.10
2022-09-01T07:50:39.774Z,22.20
2022-09-01T07:53:09.067Z,22.30
2022-09-01T07:55:40.287Z,22.30
2022-09-01T07:58:06.946Z,22.40
2022-09-01T08:00:34.211Z,22.50
2022-09-01T08:03:01.352Z,22.70
2022-09-01T08:05:28.827Z,24.00
2022-09-01T08:07:55.522Z,24.20
2022-09-01T08:10:22.222Z,24.70
2022-09-01T08:12:56.256Z,24.00
2022-09-01T08:15:40.966Z,23.80
2022-09-01T08:18:08.592Z,23.70
2022-09-01T08:20:39.473Z,24.00
2022-09-01T08:23:07.263Z,23.80
2022-09-01T08:25:37.029Z,23.60
2022-09-01T08:28:04.748Z,23.30
2022-09-01T08:30:32.794Z,23.50
2022-09-01T08:33:10.118Z,24.20
2022-09-01T08:35:39.893Z,24.00
2022-09-01T08:38:06.794Z,23.80
2022-09-01T08:40:33.524Z,24.00
2022-09-01T08:43:16.612Z,24.50
2022-09-01T08:45:56.462Z,24.30
2022-09-01T08:49:23.236Z,25.40
2022-09-01T08:51:37.428Z,26.60
2022-09-01T08:54:34.875Z,26.10
2022-09-01T08:57:06.657Z,25.30
2022-09-01T08:59:33.285Z,25.30
2022-09-01T09:02:16.379Z,25.60
2022-09-01T09:05:01.640Z,25.70
2022-09-01T09:07:46.727Z,26.40
2022-09-01T09:10:32.045Z,27.10
2022-09-01T09:12:58.691Z,26.30
2022-09-01T09:15:37.327Z,26.60
2022-09-01T09:18:39.061Z,26.70
2022-09-01T09:21:37.130Z,27.00
2022-09-01T09:24:39.253Z,26.60
2022-09-01T09:27:07.128Z,26.30
2022-09-01T09:29:36.642Z,26.70
2022-09-01T09:32:22.664Z,27.00
2022-09-01T09:34:50.906Z,27.30
2022-09-01T09:37:31.221Z,27.40
2022-09-01T09:40:10.042Z,27.10
2022-09-01T09:42:39.813Z,27.90
2022-09-01T09:45:35.075Z,27.90
2022-09-01T09:48:25.837Z,27.30
2022-09-01T09:50:52.673Z,27.40
2022-09-01T09:53:27.331Z,28.40
2022-09-01T09:55:59.293Z,28.20
2022-09-01T09:58:41.927Z,28.30
2022-09-01T10:01:28.198Z,27.80
2022-09-01T10:03:58.770Z,28.50
2022-09-01T10:06:41.907Z,28.90
2022-09-01T10:09:33.516Z,28.30
2022-09-01T10:12:02.207Z,28.40
2022-09-01T10:14:50.274Z,28.50
2022-09-01T10:17:51.623Z,28.90
2022-09-01T10:20:22.214Z,28.10
2022-09-01T10:22:50.714Z,27.90
2022-09-01T10:25:24.762Z,27.90
2022-09-01T10:28:20.834Z,28.70
2022-09-01T10:30:48.333Z,28.30
2022-09-01T10:33:20.961Z,28.60
2022-09-01T10:35:53.777Z,29.60
2022-09-01T10:38:24.213Z,30.50
2022-09-01T10:41:08.834Z,30.80
2022-09-01T10:43:49.817Z,30.80
2022-09-01T10:46:38.030Z,30.30
2022-09-01T10:49:46.443Z,30.90
2022-09-01T10:52:43.235Z,30.80
2022-09-01T10:55:24.472Z,29.70
2022-09-01T11:01:11.562Z,30.50
2022-09-01T11:03:56.384Z,31.50
2022-09-01T11:06:42.313Z,31.90
2022-09-01T11:09:24.549Z,31.50
2022-09-01T11:12:29.925Z,32.20
2022-09-01T11:15:14.518Z,32.00
2022-09-01T11:17:50.716Z,32.10
2022-09-01T11:20:31.302Z,31.60
2022-09-01T11:22:57.858Z,32.40
2022-09-01T11:25:40.843Z,33.10
2022-09-01T11:28:15.484Z,34.00
2022-09-01T11:30:55.061Z,34.20
2022-09-01T11:33:58.820Z,34.30
2022-09-01T11:36:48.648Z,34.20
2022-09-01T11:39:40.393Z,33.10
2022-09-01T11:42:23.920Z,32.20
2022-09-01T11:45:05.448Z,31.40
2022-09-01T11:47:38.418Z,32.60
2022-09-01T11:50:16.040Z,33.10
2022-09-01T11:52:51.817Z,33.30
2022-09-01T11:55:39.930Z,34.40
2022-09-01T11:58:13.420Z,34.30
2022-09-01T12:00:43.038Z,33.60
2022-09-01T12:03:30.325Z,32.60
2022-09-01T12:06:02.340Z,32.00
2022-09-01T12:08:34.218Z,31.80
2022-09-01T12:11:27.415Z,31.10
2022-09-01T12:14:15.800Z,31.60
2022-09-01T12:16:42.852Z,31.10
2022-09-01T12:19:27.222Z,30.50
2022-09-01T12:22:00.623Z,29.10
2022-09-01T12:24:31.318Z,28.40
2022-09-01T12:26:58.975Z,28.70
2022-09-01T12:29:28.876Z,29.90
2022-09-01T12:32:01.256Z,31.30
2022-09-01T12:34:28.209Z,32.00
2022-09-01T12:37:22.603Z,31.50
2022-09-01T12:39:57.502Z,32.40
2022-09-01T12:42:40.830Z,32.60
2022-09-01T12:45:10.492Z,33.50
2022-09-01T12:47:37.278Z,34.80
2022-09-01T12:50:12.903Z,34.70
2022-09-01T12:52:46.433Z,33.60
2022-09-01T12:58:10.469Z,33.40
2022-09-01T13:01:16.272Z,34.20
2022-09-01T13:03:43.453Z,34.50
2022-09-01T13:06:10.935Z,35.40
2022-09-01T13:08:37.890Z,35.40
2022-09-01T13:11:11.415Z,36.00
2022-09-01T13:13:38.363Z,35.40
2022-09-01T13:16:12.995Z,35.40
2022-09-01T13:21:30.352Z,34.40
2022-09-01T13:23:57.212Z,32.70
2022-09-01T13:26:24.036Z,32.80
2022-09-01T13:28:51.496Z,33.30
2022-09-01T13:31:34.367Z,34.00
2022-09-01T13:34:10.778Z,34.30
2022-09-01T13:36:52.185Z,34.30
2022-09-01T13:39:20.476Z,33.60
2022-09-01T13:41:47.932Z,33.10
2022-09-01T13:44:16.966Z,34.20
2022-09-01T13:47:00.873Z,34.30
2022-09-01T13:52:19.398Z,34.70
2022-09-01T13:54:46.072Z,34.90
2022-09-01T13:57:13.936Z,33.70
2022-09-01T13:59:41.759Z,33.00
2022-09-01T14:02:08.481Z,33.90
2022-09-01T14:04:35.315Z,33.90
2022-09-01T14:07:02.889Z,33.70
2022-09-01T14:09:29.705Z,33.60
2022-09-01T14:11:56.993Z,33.50
2022-09-01T14:14:23.877Z,35.00
2022-09-01T14:16:50.925Z,35.30
2022-09-01T14:19:18.305Z,34.20
2022-09-01T14:21:45.410Z,33.30
2022-09-01T14:24:12.780Z,33.60
2022-09-01T14:26:41.562Z,34.20
2022-09-01T14:29:08.409Z,34.20
2022-09-01T14:31:36.168Z,33.90
2022-09-01T14:34:02.786Z,34.30
2022-09-01T14:36:29.814Z,34.50
2022-09-01T14:38:56.618Z,36.00
2022-09-01T14:41:26.763Z,36.50
2022-09-01T14:43:57.671Z,35.60
2022-09-01T14:46:26.763Z,34.20
2022-09-01T14:48:53.505Z,33.40
2022-09-01T14:52:10.330Z,34.40
2022-09-01T14:54:15.736Z,34.00
2022-09-01T14:56:42.391Z,34.10
2022-09-01T14:59:10.824Z,34.20
2022-09-01T15:01:37.610Z,33.50
2022-09-01T15:04:04.339Z,33.90
2022-09-01T15:06:31.589Z,33.40
2022-09-01T15:08:59.637Z,34.60
2022-09-01T15:11:26.249Z,35.60
2022-09-01T15:13:53.066Z,35.10
2022-09-01T15:16:23.627Z,35.30
2022-09-01T15:18:51.119Z,36.40
2022-09-01T15:21:22.780Z,36.30
2022-09-01T15:23:50.840Z,35.60
2022-09-01T15:26:17.954Z,34.10
2022-09-01T15:28:45.569Z,33.50
2022-09-01T15:31:17.702Z,33.60
2022-09-01T15:33:44.842Z,34.30
2022-09-01T15:36:17.622Z,34.60
2022-09-01T15:38:44.588Z,35.40
2022-09-01T15:41:17.781Z,35.10
2022-09-01T15:43:44.483Z,33.60
2022-09-01T15:46:12.454Z,33.10
2022-09-01T15:48:39.273Z,32.90
2022-09-01T15:51:24.077Z,31.70
2022-09-01T15:53:52.921Z,31.20
2022-09-01T15:56:20.201Z,31.30
2022-09-01T15:59:00.167Z,30.90
2022-09-01T16:01:30.424Z,31.70
2022-09-01T16:03:57.374Z,31.20
2022-09-01T16:06:24.329Z,30.80
2022-09-01T16:08:54.175Z,30.60
2022-09-01T16:11:23.434Z,31.10
2022-09-01T16:13:53.503Z,31.40
2022-09-01T16:16:26.196Z,31.80
2022-09-01T16:19:21.625Z,32.20
2022-09-01T16:22:18.378Z,32.40
2022-09-01T16:24:51.160Z,32.40
2022-09-01T16:27:20.346Z,31.80
2022-09-01T16:29:51.828Z,32.40
2022-09-01T16:32:21.287Z,32.40
2022-09-01T16:34:48.854Z,32.30
2022-09-01T16:37:48.213Z,32.50
2022-09-01T16:40:28.033Z,32.60
2022-09-01T16:43:18.593Z,33.40
2022-09-01T16:46:20.491Z,32.80
2022-09-01T16:49:01.833Z,31.40
2022-09-01T16:51:42.375Z,31.90
2022-09-01T16:54:24.719Z,31.30
2022-09-01T16:56:58.396Z,31.70
2022-09-01T16:59:44.343Z,31.30
2022-09-01T17:02:42.207Z,31.30
2022-09-01T17:05:48.543Z,30.70
2022-09-01T17:08:20.829Z,30.60
2022-09-01T17:10:59.041Z,29.40
2022-09-01T17:13:38.282Z,29.60
2022-09-01T17:16:11.959Z,29.80
2022-09-01T17:18:40.638Z,29.00
2022-09-01T17:21:16.281Z,28.90
2022-09-01T17:23:53.255Z,28.50
2022-09-01T17:26:26.570Z,28.20
2022-09-01T17:29:02.445Z,27.90
2022-09-01T17:31:48.483Z,27.30
2022-09-01T17:34:39.989Z,26.80
2022-09-01T17:37:39.874Z,26.40
2022-09-01T17:40:19.100Z,25.80
2022-09-01T17:42:56.653Z,25.60
2022-09-01T17:45:35.995Z,25.50
2022-09-01T17:48:18.317Z,25.40
2022-09-01T17:51:03.579Z,25.10
2022-09-01T17:53:45.409Z,24.90
2022-09-01T17:56:35.929Z,24.70
2022-09-01T17:59:15.125Z,24.40
2022-09-01T18:01:52.774Z,24.20
2022-09-01T18:04:44.253Z,23.90
2022-09-01T18:07:34.626Z,23.70
2022-09-01T18:10:05.037Z,23.50
2022-09-01T18:12:36.042Z,23.30
2022-09-01T18:15:10.835Z,23.10
2022-09-01T18:17:44.479Z,22.90
2022-09-01T18:20:24.471Z,22.70
2022-09-01T18:23:05.318Z,22.50
2022-09-01T18:25:47.782Z,22.40
2022-09-01T18:28:15.077Z,22.30
2022-09-01T18:31:00.889Z,22.10
2022-09-01T18:33:46.410Z,21.90
2022-09-01T18:36:15.845Z,21.80
2022-09-01T18:39:20.249Z,21.60
2022-09-01T18:42:07.246Z,21.40
2022-09-01T18:44:45.052Z,21.20
2022-09-01T18:47:15.266Z,21.10
2022-09-01T18:50:06.930Z,21.00
2022-09-01T18:52:59.548Z,20.90
2022-09-01T18:55:48.579Z,20.80
2022-09-01T18:58:35.653Z,20.60
2022-09-01T19:01:08.090Z,20.50
2022-09-01T19:03:48.581Z,20.40
2022-09-01T19:06:28.862Z,20.20
2022-09-01T19:09:33.135Z,20.20
2022-09-01T19:12:18.723Z,20.10
2022-09-01T19:15:12.196Z,19.90
2022-09-01T19:18:13.944Z,19.80
2022-09-01T19:21:09.606Z,19.70
2022-09-01T19:24:01.382Z,19.50
2022-09-01T19:26:31.942Z,19.40
2022-09-01T19:29:06.677Z,19.30
2022-09-01T19:32:02.423Z,19.20
2022-09-01T19:34:44.010Z,19.10
2022-09-01T19:37:11.740Z,19.00
2022-09-01T19:39:43.719Z,19.00
2022-09-01T19:42:32.194Z,18.90
2022-09-01T19:45:24.053Z,18.90
2022-09-01T19:47:50.594Z,18.80
2022-09-01T19:50:31.317Z,18.70
2022-09-01T19:53:12.251Z,18.70
2022-09-01T19:56:18.362Z,18.80
2022-09-01T19:58:56.578Z,18.70
2022-09-01T20:01:49.884Z,18.70
2022-09-01T20:04:41.411Z,18.70
2022-09-01T20:07:31.430Z,18.70
2022-09-01T20:10:21.562Z,18.70
2022-09-01T20:13:18.946Z,18.70
2022-09-01T20:16:09.168Z,18.60
2022-09-01T20:18:46.230Z,18.50
2022-09-01T20:21:17.588Z,18.50
2022-09-01T20:23:47.640Z,18.40
2022-09-01T20:26:21.142Z,18.40
2022-09-01T20:29:15.005Z,18.40
2022-09-01T20:31:50.030Z,18.30
2022-09-01T20:34:30.772Z,18.40
2022-09-01T20:37:11.433Z,18.30
2022-09-01T20:40:04.173Z,18.30
2022-09-01T20:43:02.210Z,18.30
2022-09-01T20:45:29.598Z,18.40
2022-09-01T20:48:02.945Z,18.40
2022-09-01T20:50:56.866Z,18.50
2022-09-01T20:53:48.548Z,18.50
2022-09-01T20:56:38.040Z,18.50
2022-09-01T20:59:30.399Z,18.30
2022-09-01T21:02:12.169Z,18.30
2022-09-01T21:05:01.028Z,18.20
2022-09-01T21:07:49.173Z,18.20
2022-09-01T21:10:55.381Z,18.20
2022-09-01T21:13:42.432Z,18.10
2022-09-01T21:16:23.456Z,18.20
2022-09-01T21:19:01.573Z,18.20
2022-09-01T21:21:28.527Z,18.20
2022-09-01T21:23:55.146Z,18.30
2022-09-01T21:26:21.983Z,18.40
2022-09-01T21:28:55.136Z,18.40
2022-09-01T21:31:24.129Z,18.40
2022-09-01T21:33:51.435Z,18.30
2022-09-01T21:36:18.506Z,18.30
2022-09-01T21:38:45.146Z,18.40
2022-09-01T21:41:13.228Z,18.20
2022-09-01T21:43:43.749Z,18.30
2022-09-01T21:46:11.026Z,18.30
2022-09-01T21:48:37.990Z,18.20
2022-09-01T21:51:04.775Z,18.20
2022-09-01T21:53:32.765Z,18.00
2022-09-01T21:55:59.835Z,17.90
2022-09-01T21:58:26.598Z,18.00
2022-09-01T22:00:53.312Z,17.90
2022-09-01T22:03:20.476Z,17.90
2022-09-01T22:05:47.227Z,17.80
2022-09-01T22:08:17.196Z,17.70
2022-09-01T22:10:49.046Z,17.70
2022-09-01T22:13:16.045Z,17.60
2022-09-01T22:15:47.545Z,17.50
2022-09-01T22:18:16.049Z,17.50
2022-09-01T22:20:43.394Z,17.50
2022-09-01T22:23:11.278Z,17.40
2022-09-01T22:25:42.831Z,17.30
2022-09-01T22:28:09.853Z,17.40
2022-09-01T22:30:36.725Z,17.40
2022-09-01T22:33:07.733Z,17.60
2022-09-01T22:35:34.350Z,17.40
2022-09-01T22:38:00.934Z,17.40
2022-09-01T22:40:27.645Z,17.50
2022-09-01T22:42:54.334Z,17.50
2022-09-01T22:45:21.002Z,17.60
2022-09-01T22:47:47.716Z,17.70
2022-09-01T22:50:14.386Z,17.70
2022-09-01T22:52:41.028Z,17.70
2022-09-01T22:55:09.473Z,17.80
2022-09-01T22:57:36.739Z,17.80
2022-09-01T23:00:08.518Z,17.90
2022-09-01T23:02:35.766Z,17.80
2022-09-01T23:05:02.615Z,17.80
2022-09-01T23:07:34.822Z,17.70
2022-09-01T23:10:01.786Z,17.70
2022-09-01T23:12:28.425Z,17.70
2022-09-01T23:14:55.094Z,17.80
2022-09-01T23:17:21.691Z,17.90
2022-09-01T23:19:48.302Z,17.80
2022-09-01T23:22:14.998Z,17.90
2022-09-01T23:24:41.718Z,17.80
2022-09-01T23:27:08.332Z,17.70
2022-09-01T23:29:36.965Z,17.70
2022-09-01T23:32:04.061Z,17.90
2022-09-01T23:34:30.661Z,17.80
2022-09-01T23:36:57.286Z,17.80
2022-09-01T23:39:23.882Z,17.90
2022-09-01T23:41:51.729Z,17.80
2022-09-01T23:44:18.585Z,17.80
2022-09-01T23:46:46.574Z,17.80
2022-09-01T23:49:15.235Z,17.70
2022-09-01T23:51:42.483Z,17.70
2022-09-01T23:54:09.555Z,17.70
2022-09-01T23:56:37.769Z,17.70
2022-09-01T23:59:05.209Z,17.70
